Time;durP1;ratioP1;P1;durP2;ratioP2;P2;SDS_P1;SDS_P2;PMS_P1;PMS_P2;Temp;Humidity;BMP_temperature;BMP_pressure;BME280_temperature;BME280_humidity;BME280_pressure;Samples;Min_cycle;Max_cycle;Signal;HPM_P1;HPM_P2
2023/07/26 00:00:06;;;;;;;5.43;2.80;;;;;;;28.00;48.22;99760.41;5072516;28;20044;-56
2023/07/26 00:02:39;;;;;;;6.53;3.17;;;;;;;27.99;48.30;99764.97;5076737;28;20416;-56
2023/07/26 00:05:07;;;;;;;3.28;2.22;;;;;;;28.00;48.63;99769.41;5071866;28;20060;-56
2023/07/26 00:07:34;;;;;;;5.43;2.78;;;;;;;28.02;48.29;99769.16;5073674;28;20044;-56
2023/07/26 00:10:02;;;;;;;6.20;3.08;;;;;;;28.02;48.38;99774.59;5070399;28;20045;-56
2023/07/26 00:12:29;;;;;;;4.75;2.65;;;;;;;28.01;48.53;99768.34;5071766;28;20049;-56
2023/07/26 00:14:57;;;;;;;4.70;2.20;;;;;;;28.02;48.80;99769.16;5072632;28;20055;-56
2023/07/26 00:17:24;;;;;;;5.88;2.92;;;;;;;28.02;48.77;99770.00;5071503;28;20381;-60
2023/07/26 00:19:51;;;;;;;5.47;2.45;;;;;;;28.04;48.51;99775.25;5072046;28;20389;-60
2023/07/26 00:22:19;;;;;;;5.18;2.70;;;;;;;28.04;48.70;99784.25;5069418;28;20051;-60
2023/07/26 00:24:46;;;;;;;4.65;2.50;;;;;;;28.05;48.66;99793.25;5071114;28;20044;-60
2023/07/26 00:27:16;;;;;;;5.22;2.63;;;;;;;28.04;49.11;99778.81;5073284;28;20055;-59
2023/07/26 00:29:44;;;;;;;4.82;2.50;;;;;;;28.05;48.85;99774.19;5069739;28;20059;-60
2023/07/26 00:32:11;;;;;;;6.03;2.88;;;;;;;28.05;49.22;99788.63;5070710;28;20056;-59
2023/07/26 00:34:39;;;;;;;4.75;2.47;;;;;;;28.06;48.86;99778.56;5072455;28;20061;-60
2023/07/26 00:37:06;;;;;;;4.55;2.35;;;;;;;28.06;49.22;99787.56;5071217;28;20045;-59
2023/07/26 00:39:35;;;;;;;4.28;2.72;;;;;;;28.08;49.04;99790.09;5055490;28;20530;-60
2023/07/26 00:42:02;;;;;;;5.30;2.60;;;;;;;28.08;49.09;99795.53;5068694;28;20041;-60
2023/07/26 00:44:30;;;;;;;6.80;3.05;;;;;;;28.07;49.13;99786.50;5070478;28;20049;-60
2023/07/26 00:46:57;;;;;;;5.18;2.60;;;;;;;28.08;49.09;99793.66;5071977;28;20076;-56
2023/07/26 00:49:25;;;;;;;5.82;2.55;;;;;;;28.09;49.14;99792.59;5069005;28;20040;-56
2023/07/26 00:51:53;;;;;;;4.70;2.67;;;;;;;28.09;49.19;99795.31;5058376;28;20056;-56
2023/07/26 00:54:21;;;;;;;5.32;2.53;;;;;;;28.09;49.62;99800.75;5072335;28;20056;-56
2023/07/26 00:56:49;;;;;;;4.90;2.80;;;;;;;28.09;49.58;99798.03;5071155;28;20531;-56
2023/07/26 00:59:17;;;;;;;4.75;2.45;;;;;;;28.10;49.75;99805.13;5071008;28;20056;-56
2023/07/26 01:01:44;;;;;;;6.30;2.70;;;;;;;28.10;49.85;99796.97;5039538;28;20068;-56
2023/07/26 01:04:11;;;;;;;4.93;2.80;;;;;;;28.12;49.44;99795.94;5055777;28;20045;-60
2023/07/26 01:06:56;;;;;;;5.53;2.65;;;;;;;28.12;49.69;99796.78;5063658;28;20512;-56
2023/07/26 01:09:41;;;;;;;5.03;2.58;;;;;;;28.13;49.90;99797.59;5070764;28;20048;-56
2023/07/26 01:12:22;;;;;;;6.03;3.10;;;;;;;28.12;50.05;99807.66;5056661;28;20049;-56
2023/07/26 01:14:58;;;;;;;4.43;2.72;;;;;;;28.12;50.12;99801.38;5069377;28;20396;-56
2023/07/26 01:17:29;;;;;;;7.60;2.92;;;;;;;28.13;49.82;99812.03;5055816;28;20049;-59
2023/07/26 01:19:57;;;;;;;4.63;2.95;;;;;;;28.13;49.72;99814.75;5060774;28;20580;-59
2023/07/26 01:22:24;;;;;;;3.88;2.60;;;;;;;28.13;49.83;99814.75;5070921;28;20420;-60
2023/07/26 01:24:52;;;;;;;8.20;3.03;;;;;;;28.13;50.29;99809.31;5061610;28;20053;-60
2023/07/26 01:27:19;;;;;;;6.43;2.88;;;;;;;28.14;50.24;99818.31;5070200;28;20052;-56
2023/07/26 01:29:50;;;;;;;4.43;2.63;;;;;;;28.13;50.22;99814.75;5060611;28;20051;-56
2023/07/26 01:32:20;;;;;;;6.63;3.03;;;;;;;28.15;50.18;99828.16;5071927;28;20484;-56
2023/07/26 01:34:49;;;;;;;3.97;2.67;;;;;;;28.16;50.01;99835.28;5067536;28;20056;-56
2023/07/26 01:37:19;;;;;;;7.15;3.03;;;;;;;28.14;50.34;99843.63;5069785;28;20045;-56
2023/07/26 01:39:48;;;;;;;5.22;2.95;;;;;;;28.15;49.97;99847.19;5072146;28;20045;-56
2023/07/26 01:42:16;;;;;;;4.47;2.72;;;;;;;28.16;50.41;99840.72;5070070;28;20067;-56
2023/07/26 01:44:43;;;;;;;4.60;2.58;;;;;;;28.16;50.14;99851.59;5069385;28;20074;-56
2023/07/26 01:47:11;;;;;;;5.38;2.60;;;;;;;28.17;50.37;99853.28;5069472;28;20044;-56
2023/07/26 01:49:38;;;;;;;4.47;2.95;;;;;;;28.16;50.19;99851.59;5069845;28;20048;-56
2023/07/26 01:52:06;;;;;;;4.53;2.90;;;;;;;28.16;50.50;99847.00;5071595;28;20511;-56
2023/07/26 01:54:33;;;;;;;4.75;2.85;;;;;;;28.16;50.40;99847.00;5067170;28;20045;-56
2023/07/26 01:57:00;;;;;;;4.82;2.80;;;;;;;28.17;50.48;99858.72;5069640;28;20412;-56
2023/07/26 01:59:28;;;;;;;5.07;2.92;;;;;;;28.17;50.18;99862.28;5070309;28;20060;-57
2023/07/26 02:01:56;;;;;;;5.82;2.83;;;;;;;28.17;50.45;99867.72;5068259;28;20048;-56
2023/07/26 02:04:24;;;;;;;4.68;2.90;;;;;;;28.17;50.57;99869.59;5070725;28;20056;-56
2023/07/26 02:06:52;;;;;;;5.47;3.05;;;;;;;28.17;50.25;99870.44;5068775;28;20055;-56
2023/07/26 02:09:20;;;;;;;5.68;3.22;;;;;;;28.18;50.42;99863.09;5060289;28;20127;-56
2023/07/26 02:11:47;;;;;;;5.07;2.72;;;;;;;28.18;50.46;99865.81;5069875;28;20048;-56
2023/07/26 02:14:16;;;;;;;4.65;2.70;;;;;;;28.18;50.82;99866.66;5054709;28;20056;-56
2023/07/26 02:16:43;;;;;;;6.32;3.13;;;;;;;28.18;50.46;99882.16;5068218;28;20504;-56
2023/07/26 02:19:10;;;;;;;4.45;2.75;;;;;;;28.17;50.46;99894.94;5069583;28;20396;-56
2023/07/26 02:21:38;;;;;;;4.32;2.90;;;;;;;28.17;50.86;99884.03;5071050;28;20047;-56
2023/07/26 02:24:05;;;;;;;3.83;2.80;;;;;;;28.18;50.68;99893.03;5066123;28;20063;-56
2023/07/26 02:26:33;;;;;;;4.43;2.53;;;;;;;28.17;50.82;99892.19;5056690;28;20064;-57
2023/07/26 02:29:00;;;;;;;4.28;3.05;;;;;;;28.17;50.58;99889.47;5060130;28;20526;-56
2023/07/26 02:31:27;;;;;;;5.22;3.00;;;;;;;28.18;50.89;99898.47;5069495;28;20049;-56
2023/07/26 02:33:55;;;;;;;5.38;3.03;;;;;;;28.17;50.50;99894.09;5051033;28;20068;-57
2023/07/26 02:36:24;;;;;;;4.35;3.35;;;;;;;28.18;50.38;99901.19;5059427;28;20052;-59
2023/07/26 02:38:51;;;;;;;5.68;3.17;;;;;;;28.17;50.74;99900.38;5069011;28;20424;-59
2023/07/26 02:41:19;;;;;;;4.90;3.08;;;;;;;28.17;50.37;99902.25;5069085;28;20051;-59
2023/07/26 02:43:46;;;;;;;5.10;2.88;;;;;;;28.16;50.43;99904.16;5066493;28;20516;-59
2023/07/26 02:46:13;;;;;;;5.45;3.00;;;;;;;28.15;50.81;99909.78;5067478;28;20052;-59
2023/07/26 02:48:41;;;;;;;4.43;2.85;;;;;;;28.15;50.77;99915.22;5069813;28;20048;-59
2023/07/26 02:51:08;;;;;;;6.28;3.30;;;;;;;28.16;50.77;99922.38;5068409;28;20044;-59
2023/07/26 02:53:35;;;;;;;4.75;2.97;;;;;;;28.15;50.84;99921.50;5068047;28;20064;-59
2023/07/26 02:56:03;;;;;;;4.97;3.17;;;;;;;28.15;50.30;99924.22;5062281;28;20040;-59
2023/07/26 02:58:30;;;;;;;5.20;3.40;;;;;;;28.15;50.40;99924.22;5073909;28;20055;-60
2023/07/26 03:00:58;;;;;;;5.45;3.10;;;;;;;28.15;50.79;99935.09;5071559;28;20053;-60
2023/07/26 03:03:25;;;;;;;4.55;2.70;;;;;;;28.16;50.51;99934.09;5073424;28;20056;-60
2023/07/26 03:05:57;;;;;;;4.50;2.88;;;;;;;28.17;50.62;99943.06;5072752;28;20059;-59
2023/07/26 03:08:24;;;;;;;5.30;3.05;;;;;;;28.17;50.47;99951.25;5073017;28;20048;-56
2023/07/26 03:10:52;;;;;;;5.55;3.35;;;;;;;28.16;50.77;99950.41;5073328;28;20060;-56
2023/07/26 03:13:20;;;;;;;5.38;3.00;;;;;;;28.16;50.78;99957.75;5070779;28;20041;-56
2023/07/26 03:15:48;;;;;;;5.57;2.53;;;;;;;28.16;50.81;99955.84;5072497;28;20068;-56
2023/07/26 03:18:16;;;;;;;5.13;3.35;;;;;;;28.16;50.43;99960.47;5071487;28;20564;-59
2023/07/26 03:20:46;;;;;;;6.22;3.60;;;;;;;28.16;50.52;99955.03;5063600;28;20049;-59
2023/07/26 03:23:14;;;;;;;4.97;2.83;;;;;;;28.16;50.42;99960.47;5073557;28;20412;-59
2023/07/26 03:25:42;;;;;;;4.82;3.35;;;;;;;28.16;50.51;99963.19;5072374;28;20057;-59
2023/07/26 03:28:09;;;;;;;4.78;3.28;;;;;;;28.16;50.92;99960.47;5072761;28;20049;-59
2023/07/26 03:30:37;;;;;;;3.53;2.28;;;;;;;28.16;50.42;99955.84;5073576;28;20063;-59
2023/07/26 03:33:04;;;;;;;5.28;2.67;;;;;;;28.16;50.74;99955.84;5070029;28;20047;-59
2023/07/26 03:35:32;;;;;;;5.10;2.85;;;;;;;28.15;50.43;99962.31;5069951;28;20104;-59
2023/07/26 03:37:59;;;;;;;4.10;2.88;;;;;;;28.16;50.82;99968.63;5065829;28;20403;-59
2023/07/26 03:40:26;;;;;;;6.60;3.78;;;;;;;28.16;50.49;99974.06;5073954;28;20044;-59
2023/07/26 03:42:54;;;;;;;5.53;2.60;;;;;;;28.16;50.64;99977.63;5069704;28;20053;-60
2023/07/26 03:45:21;;;;;;;4.68;2.95;;;;;;;28.16;50.71;99984.97;5070337;28;20060;-60
2023/07/26 03:47:48;;;;;;;3.92;2.40;;;;;;;28.16;50.72;99980.34;5074472;28;20044;-56
2023/07/26 03:50:22;;;;;;;3.55;2.67;;;;;;;28.17;50.57;99983.91;5070634;28;20065;-56
2023/07/26 03:52:50;;;;;;;4.72;3.00;;;;;;;28.16;50.50;99996.66;5072349;28;20056;-56
2023/07/26 03:55:17;;;;;;;4.80;2.90;;;;;;;28.17;50.34;99997.50;5072676;28;20052;-56
2023/07/26 03:57:45;;;;;;;5.80;3.38;;;;;;;28.17;50.30;100000.22;5064912;28;20053;-56
2023/07/26 04:00:13;;;;;;;5.03;2.55;;;;;;;28.16;50.47;100004.84;5067922;28;20045;-56
2023/07/26 04:02:40;;;;;;;4.78;2.90;;;;;;;28.16;50.74;100009.44;5058524;28;20056;-56
2023/07/26 04:05:08;;;;;;;5.20;3.10;;;;;;;28.16;50.77;100007.56;5061027;28;20067;-56
2023/07/26 04:07:36;;;;;;;5.32;3.10;;;;;;;28.17;50.41;100011.94;5071256;28;20074;-56
2023/07/26 04:10:04;;;;;;;4.03;2.65;;;;;;;28.18;50.53;100024.50;5069715;28;20044;-56
2023/07/26 04:12:31;;;;;;;4.28;2.60;;;;;;;28.17;50.77;100027.44;5058593;28;20049;-56
2023/07/26 04:14:59;;;;;;;7.07;3.13;;;;;;;28.16;50.48;100029.34;5065991;28;20040;-56
2023/07/26 04:17:26;;;;;;;5.10;2.92;;;;;;;28.18;50.44;100034.56;5071553;28;20052;-56
2023/07/26 04:19:54;;;;;;;3.40;2.47;;;;;;;28.17;50.93;100038.31;5073470;28;20044;-56
2023/07/26 04:22:21;;;;;;;3.67;2.22;;;;;;;28.17;51.08;100043.78;5069554;28;20499;-56
2023/07/26 04:24:48;;;;;;;3.72;2.28;;;;;;;28.17;50.55;100039.16;5073154;28;20044;-56
2023/07/26 04:27:16;;;;;;;4.85;2.65;;;;;;;28.18;50.57;100040.00;5071329;28;20051;-59
2023/07/26 04:29:43;;;;;;;4.22;3.22;;;;;;;28.17;50.76;100043.78;5073374;28;20049;-59
2023/07/26 04:32:10;;;;;;;4.65;2.75;;;;;;;28.17;50.62;100051.94;5061566;28;20033;-60
2023/07/26 04:34:38;;;;;;;3.90;2.75;;;;;;;28.16;50.47;100053.81;5061416;28;20415;-60
2023/07/26 04:37:05;;;;;;;4.32;2.67;;;;;;;28.16;50.49;100055.72;5073119;28;20055;-59
2023/07/26 04:39:33;;;;;;;5.03;2.90;;;;;;;28.16;50.51;100070.16;5069222;28;20049;-60
2023/07/26 04:42:00;;;;;;;4.43;2.75;;;;;;;28.17;50.83;100073.72;5057843;28;20396;-59
2023/07/26 04:44:27;;;;;;;5.78;3.20;;;;;;;28.16;50.72;100064.72;5060980;28;20052;-60
2023/07/26 04:46:55;;;;;;;4.65;2.65;;;;;;;28.17;50.60;100065.53;5072891;28;20041;-59
2023/07/26 04:49:22;;;;;;;4.13;2.90;;;;;;;28.18;50.79;100061.75;5069535;28;20048;-59
2023/07/26 04:51:49;;;;;;;5.85;3.33;;;;;;;28.17;50.84;100060.09;5057522;28;20056;-59
2023/07/26 04:54:17;;;;;;;4.93;3.00;;;;;;;28.16;50.65;100062.00;5060946;28;20059;-59
2023/07/26 04:56:44;;;;;;;4.95;2.97;;;;;;;28.17;50.82;100065.53;5072815;28;20048;-56
2023/07/26 04:59:12;;;;;;;6.30;2.90;;;;;;;28.17;51.02;100071.81;5068936;28;20041;-56
2023/07/26 05:01:39;;;;;;;4.18;2.90;;;;;;;28.17;51.13;100073.72;5071394;28;20389;-57
2023/07/26 05:04:09;;;;;;;4.70;3.10;;;;;;;28.17;51.20;100076.44;5072251;28;20404;-57
2023/07/26 05:06:36;;;;;;;4.30;2.85;;;;;;;28.17;51.20;100079.16;5070641;28;20048;-59
2023/07/26 05:09:05;;;;;;;4.78;3.03;;;;;;;28.17;51.23;100090.03;5072527;28;20503;-60
2023/07/26 05:11:32;;;;;;;6.63;2.88;;;;;;;28.16;51.15;100091.94;5068533;28;20048;-59
2023/07/26 05:14:00;;;;;;;6.38;3.25;;;;;;;28.17;50.77;100090.88;5060993;28;20048;-60
2023/07/26 05:16:27;;;;;;;4.60;2.95;;;;;;;28.16;51.10;100097.38;5072309;28;20369;-59
2023/07/26 05:18:57;;;;;;;4.88;3.20;;;;;;;28.18;50.85;100105.31;5067754;28;20055;-56
2023/07/26 05:21:25;;;;;;;5.82;3.00;;;;;;;28.17;51.01;100099.03;5070173;28;20056;-56
2023/07/26 05:23:52;;;;;;;4.78;2.75;;;;;;;28.17;51.27;100101.75;5072364;28;20040;-56
2023/07/26 05:26:21;;;;;;;4.20;3.05;;;;;;;28.18;51.00;100108.03;5070112;28;20056;-56
2023/07/26 05:28:48;;;;;;;4.32;2.85;;;;;;;28.18;51.31;100110.75;5071202;28;20048;-56
2023/07/26 05:31:16;;;;;;;5.15;3.03;;;;;;;28.18;51.22;100118.91;5068736;28;20052;-56
2023/07/26 05:33:43;;;;;;;4.78;2.80;;;;;;;28.18;51.42;100125.19;5069829;28;20048;-56
2023/07/26 05:36:10;;;;;;;4.63;2.83;;;;;;;28.18;51.34;100127.91;5072113;28;20055;-56
2023/07/26 05:38:38;;;;;;;4.22;2.92;;;;;;;28.18;50.93;100127.09;5068065;28;20045;-56
2023/07/26 05:41:05;;;;;;;4.35;3.22;;;;;;;28.18;51.14;100135.25;5069839;28;20056;-56
2023/07/26 05:43:33;;;;;;;5.40;2.90;;;;;;;28.18;50.84;100138.81;5071862;28;20048;-56
2023/07/26 05:46:02;;;;;;;5.43;3.08;;;;;;;28.19;50.70;100140.47;5069979;28;20506;-56
2023/07/26 05:48:30;;;;;;;5.40;2.97;;;;;;;28.19;50.70;100135.03;5061228;28;20041;-60
2023/07/26 05:50:57;;;;;;;5.43;2.92;;;;;;;28.19;50.80;100137.75;5068663;28;20044;-59
2023/07/26 05:53:25;;;;;;;8.35;2.90;;;;;;;28.19;50.77;100145.09;5069591;28;20044;-59
2023/07/26 05:55:52;;;;;;;9.00;3.63;;;;;;;28.19;51.22;100153.25;5071531;28;20044;-60
2023/07/26 05:58:19;;;;;;;4.45;3.05;;;;;;;28.20;50.91;100158.50;5067219;28;20045;-56
2023/07/26 06:00:47;;;;;;;4.10;2.90;;;;;;;28.20;51.01;100163.13;5069275;28;20500;-56
2023/07/26 06:03:14;;;;;;;4.18;2.67;;;;;;;28.19;51.28;100162.25;5071561;28;20048;-56
2023/07/26 06:05:41;;;;;;;4.70;2.65;;;;;;;28.21;51.02;100171.06;5069207;28;20048;-56
2023/07/26 06:08:09;;;;;;;4.88;2.92;;;;;;;28.22;51.21;100169.16;5070580;28;20052;-60
2023/07/26 06:10:36;;;;;;;3.83;2.55;;;;;;;28.21;51.33;100176.50;5067806;28;20377;-59
2023/07/26 06:13:04;;;;;;;4.35;2.33;;;;;;;28.22;51.24;100172.72;5069359;28;20408;-59
2023/07/26 06:15:34;;;;;;;4.22;2.92;;;;;;;28.22;50.85;100172.72;5071306;28;20052;-60
2023/07/26 06:18:02;;;;;;;3.83;2.53;;;;;;;28.22;51.00;100172.72;5066899;28;20068;-56
2023/07/26 06:20:29;;;;;;;5.75;2.83;;;;;;;28.22;50.81;100178.16;5068795;28;20049;-62
2023/07/26 06:22:56;;;;;;;4.85;2.60;;;;;;;28.21;50.79;100187.38;5071124;28;20044;-62
2023/07/26 06:25:24;;;;;;;4.90;2.72;;;;;;;28.19;50.47;100186.75;5061141;28;20055;-62
2023/07/26 06:27:51;;;;;;;4.25;2.78;;;;;;;28.19;50.03;100192.19;5071527;28;20045;-57
2023/07/26 06:30:18;;;;;;;6.75;2.60;;;;;;;28.17;50.24;100194.28;5067358;28;20048;-57
2023/07/26 06:32:49;;;;;;;3.78;2.47;;;;;;;28.17;49.64;100205.19;5068698;28;20051;-57
2023/07/26 06:35:17;;;;;;;3.53;2.10;;;;;;;28.17;49.41;100199.72;5071114;28;20055;-57
2023/07/26 06:37:44;;;;;;;6.35;2.90;;;;;;;28.16;48.97;100210.84;5067073;28;20045;-61
2023/07/26 06:40:12;;;;;;;5.68;2.67;;;;;;;28.10;47.77;100217.91;5068966;28;20045;-59
2023/07/26 06:42:39;;;;;;;3.92;1.90;;;;;;;27.97;47.05;100217.88;5071168;28;20048;-57
2023/07/26 06:45:07;;;;;;;4.53;1.77;;;;;;;27.90;46.74;100217.00;5060212;28;20044;-55
2023/07/26 06:47:35;;;;;;;4.20;1.75;;;;;;;27.84;46.25;100224.94;5071848;28;20053;-58
2023/07/26 06:50:02;;;;;;;3.00;1.55;;;;;;;27.81;46.18;100219.06;5068389;28;20040;-58
2023/07/26 06:52:30;;;;;;;4.60;1.80;;;;;;;27.77;45.88;100226.78;5068771;28;20150;-58
2023/07/26 06:54:58;;;;;;;2.70;1.63;;;;;;;27.75;45.76;100226.16;5070556;28;20063;-58
2023/07/26 06:57:25;;;;;;;3.13;1.40;;;;;;;27.72;45.72;100236.56;5066405;28;20048;-58
2023/07/26 06:59:53;;;;;;;2.92;1.90;;;;;;;27.67;46.11;100239.91;5068733;28;20049;-58
2023/07/26 07:02:20;;;;;;;3.40;1.75;;;;;;;27.63;46.22;100237.75;5064952;28;20049;-58
2023/07/26 07:04:47;;;;;;;3.25;1.75;;;;;;;27.60;46.21;100233.59;5064695;28;20036;-58
2023/07/26 07:07:15;;;;;;;5.20;1.90;;;;;;;27.58;45.88;100231.03;5069424;28;20060;-56
2023/07/26 07:09:43;;;;;;;3.28;1.42;;;;;;;27.57;45.87;100228.53;5068074;28;20496;-56
2023/07/26 07:12:10;;;;;;;3.55;1.45;;;;;;;27.53;46.04;100238.97;5068691;28;20396;-56
2023/07/26 07:14:37;;;;;;;3.70;1.80;;;;;;;27.51;45.75;100240.22;5070385;28;20042;-56
2023/07/26 07:17:05;;;;;;;3.63;1.50;;;;;;;27.48;46.03;100238.75;5071219;28;20048;-56
2023/07/26 07:19:32;;;;;;;3.70;1.70;;;;;;;27.48;46.01;100241.47;5067922;28;20044;-56
2023/07/26 07:22:00;;;;;;;3.25;1.45;;;;;;;27.47;46.05;100250.66;5069329;28;20044;-56
2023/07/26 07:24:27;;;;;;;2.15;1.40;;;;;;;27.45;45.83;100247.28;5070606;28;20408;-56
2023/07/26 07:26:54;;;;;;;3.53;1.52;;;;;;;27.44;45.28;100256.50;5066302;28;20045;-57
2023/07/26 07:29:22;;;;;;;2.78;1.10;;;;;;;27.45;45.46;100251.91;5068384;28;20049;-58
2023/07/26 07:31:49;;;;;;;2.50;1.15;;;;;;;27.45;45.50;100254.63;5070403;28;20063;-58
2023/07/26 07:34:17;;;;;;;3.88;1.30;;;;;;;27.44;45.27;100255.66;5068324;28;20063;-58
2023/07/26 07:36:44;;;;;;;2.30;1.30;;;;;;;27.43;45.07;100260.25;5069063;28;20419;-54
2023/07/26 07:39:12;;;;;;;2.28;1.35;;;;;;;27.40;45.02;100260.66;5067532;28;20491;-54
2023/07/26 07:41:40;;;;;;;2.95;1.27;;;;;;;27.38;45.02;100262.72;5070695;28;20053;-55
2023/07/26 07:44:07;;;;;;;3.40;1.70;;;;;;;27.36;45.32;100265.63;5073847;28;20052;-55
2023/07/26 07:46:34;;;;;;;4.07;1.50;;;;;;;27.38;45.57;100267.31;5062322;28;20049;-57
2023/07/26 07:49:05;;;;;;;2.85;1.40;;;;;;;27.37;46.04;100274.63;5071805;28;20041;-58
2023/07/26 07:51:33;;;;;;;2.78;1.42;;;;;;;27.37;46.20;100274.63;5071826;28;20045;-58
2023/07/26 07:54:01;;;;;;;2.30;1.20;;;;;;;27.37;46.13;100277.34;5073693;28;20048;-59
2023/07/26 07:56:28;;;;;;;2.78;1.40;;;;;;;27.37;46.01;100269.19;5069854;28;20044;-57
2023/07/26 07:58:55;;;;;;;2.70;1.58;;;;;;;27.37;46.35;100277.34;5071357;28;20049;-55
2023/07/26 08:01:23;;;;;;;3.42;1.65;;;;;;;27.38;46.17;100281.75;5073706;28;20048;-54
2023/07/26 08:03:51;;;;;;;2.88;1.45;;;;;;;27.36;46.40;100287.38;5071348;28;20044;-57
2023/07/26 08:06:19;;;;;;;2.60;1.27;;;;;;;27.35;46.32;100288.44;5071676;28;20045;-56
2023/07/26 08:08:46;;;;;;;2.75;1.50;;;;;;;27.36;46.41;100297.44;5066842;28;20049;-58
2023/07/26 08:11:13;;;;;;;3.08;1.33;;;;;;;27.36;46.58;100294.72;5071186;28;20059;-58
2023/07/26 08:13:42;;;;;;;3.30;1.83;;;;;;;27.38;46.36;100299.94;5071518;28;20468;-58
2023/07/26 08:16:09;;;;;;;3.00;1.67;;;;;;;27.41;46.53;100307.69;5068663;28;20488;-57
2023/07/26 08:18:38;;;;;;;3.22;1.92;;;;;;;27.44;46.86;100310.03;5068103;28;20037;-57
2023/07/26 08:21:05;;;;;;;2.83;1.60;;;;;;;27.41;46.50;100310.41;5056839;28;20045;-54
2023/07/26 08:23:33;;;;;;;2.83;1.73;;;;;;;27.39;46.88;100307.03;5070760;28;20044;-54
2023/07/26 08:26:05;;;;;;;3.42;2.22;;;;;;;27.37;46.71;100309.97;5060545;28;20041;-54
2023/07/26 08:28:33;;;;;;;3.22;1.83;;;;;;;27.33;46.52;100308.69;5068261;28;20044;-57
2023/07/26 08:31:00;;;;;;;3.75;1.88;;;;;;;27.30;46.13;100312.63;5067223;28;20051;-58
2023/07/26 08:33:28;;;;;;;2.92;1.80;;;;;;;27.28;46.24;100314.72;5062462;28;20052;-59
2023/07/26 08:35:58;;;;;;;3.17;1.88;;;;;;;27.27;46.19;100306.78;5059309;28;20041;-59
2023/07/26 08:38:26;;;;;;;3.13;1.55;;;;;;;27.27;46.07;100317.63;5058583;28;20045;-55
2023/07/26 08:40:53;;;;;;;2.83;1.80;;;;;;;27.27;46.19;100320.38;5058231;28;20049;-56
2023/07/26 08:43:23;;;;;;;7.47;2.45;;;;;;;27.26;46.23;100313.22;5060834;28;20416;-55
2023/07/26 08:45:52;;;;;;;3.35;1.70;;;;;;;27.25;46.17;100316.97;5057942;28;20511;-54
2023/07/26 08:48:21;;;;;;;3.95;1.67;;;;;;;27.25;46.49;100325.97;5058043;28;20410;-58
2023/07/26 08:50:49;;;;;;;4.00;1.70;;;;;;;27.25;46.12;100322.41;5058392;28;20048;-58
2023/07/26 08:53:16;;;;;;;3.25;1.85;;;;;;;27.26;46.12;100326.81;5060429;28;20052;-58
2023/07/26 08:55:44;;;;;;;3.78;1.98;;;;;;;27.23;46.36;100329.94;5057786;28;20408;-58
2023/07/26 08:58:12;;;;;;;2.95;1.55;;;;;;;27.25;46.65;100336.00;5058242;28;20060;-55
2023/07/26 09:00:40;;;;;;;3.03;1.60;;;;;;;27.29;46.62;100329.16;5057223;28;20057;-56
2023/07/26 09:03:13;;;;;;;3.80;2.00;;;;;;;27.27;46.66;100336.66;5059665;28;20037;-56
2023/07/26 09:05:41;;;;;;;3.35;1.90;;;;;;;27.26;46.65;100334.97;5057459;28;20049;-56
2023/07/26 09:08:09;;;;;;;3.35;1.77;;;;;;;27.26;46.71;100345.84;5058640;28;20045;-56
2023/07/26 09:10:38;;;;;;;3.15;2.08;;;;;;;27.27;47.02;100347.53;5057995;28;20053;-55
2023/07/26 09:13:15;;;;;;;3.15;1.83;;;;;;;27.30;47.18;100352.56;5060394;28;20040;-55
2023/07/26 09:15:43;;;;;;;2.92;1.80;;;;;;;27.30;47.32;100350.69;5057140;28;20045;-56
2023/07/26 09:18:12;;;;;;;2.33;1.42;;;;;;;27.33;47.54;100347.56;5057364;28;20056;-57
2023/07/26 09:20:39;;;;;;;3.95;2.20;;;;;;;27.37;47.42;100353.47;5055663;28;20062;-58
2023/07/26 09:23:09;;;;;;;6.70;3.10;;;;;;;27.42;47.78;100352.88;5059149;28;20045;-58
2023/07/26 09:25:42;;;;;;;7.15;3.38;;;;;;;27.43;47.89;100349.97;5067153;28;20041;-58
2023/07/26 09:28:14;;;;;;;4.57;2.92;;;;;;;27.47;47.65;100353.16;5066969;28;20048;-56
2023/07/26 09:30:45;;;;;;;5.85;2.80;;;;;;;27.49;47.75;100351.06;5058260;28;20056;-54
2023/07/26 09:33:13;;;;;;;6.10;3.42;;;;;;;27.49;47.64;100351.88;5068684;28;20056;-56
2023/07/26 09:35:45;;;;;;;4.72;2.72;;;;;;;27.51;47.72;100351.72;5054321;28;20045;-55
2023/07/26 09:38:17;;;;;;;5.10;3.22;;;;;;;27.53;48.09;100358.59;5054833;28;20045;-58
2023/07/26 09:40:44;;;;;;;6.95;3.80;;;;;;;27.54;48.02;100360.28;5069310;28;20052;-57
2023/07/26 09:43:12;;;;;;;5.20;2.97;;;;;;;27.57;47.84;100359.06;5060756;28;20061;-58
2023/07/26 09:45:40;;;;;;;5.15;3.30;;;;;;;27.57;47.85;100359.06;5072205;28;20500;-58
2023/07/26 09:48:11;;;;;;;4.90;2.75;;;;;;;27.57;47.81;100359.91;5072809;28;20052;-55
2023/07/26 09:50:43;;;;;;;4.47;2.25;;;;;;;27.59;47.67;100363.28;5060480;28;20048;-55
2023/07/26 09:53:12;;;;;;;4.70;2.17;;;;;;;27.58;47.46;100358.84;5061868;28;20048;-55
2023/07/26 09:55:40;;;;;;;5.47;2.47;;;;;;;27.60;47.09;100369.53;5070154;28;20051;-55
2023/07/26 09:58:08;;;;;;;3.67;2.40;;;;;;;27.61;46.71;100363.91;5058545;28;20048;-55
2023/07/26 10:00:37;;;;;;;4.15;1.90;;;;;;;27.61;46.56;100366.63;5067450;28;20052;-55
2023/07/26 10:03:06;;;;;;;4.32;2.08;;;;;;;27.62;46.17;100359.31;5054033;28;20394;-55
2023/07/26 10:05:38;;;;;;;4.10;2.33;;;;;;;27.62;46.27;100367.44;5065959;28;20052;-55
2023/07/26 10:08:06;;;;;;;3.55;2.40;;;;;;;27.63;46.27;100357.41;5057014;28;20406;-56
2023/07/26 10:10:33;;;;;;;3.72;2.00;;;;;;;27.66;46.38;100367.91;5065303;28;20048;-56
2023/07/26 10:13:04;;;;;;;3.42;1.65;;;;;;;27.67;46.25;100364.13;5062534;28;20055;-57
2023/07/26 10:15:33;;;;;;;2.90;1.95;;;;;;;27.68;46.36;100363.13;5065609;28;20044;-57
2023/07/26 10:18:00;;;;;;;4.05;1.90;;;;;;;27.67;46.33;100370.44;5057600;28;20052;-57
2023/07/26 10:20:30;;;;;;;3.60;1.75;;;;;;;27.67;46.41;100375.00;5066521;28;20049;-56
2023/07/26 10:23:03;;;;;;;3.95;1.80;;;;;;;27.67;45.76;100372.28;5063447;28;20048;-57
2023/07/26 10:25:32;;;;;;;3.35;2.00;;;;;;;27.65;45.42;100368.94;5064252;28;20496;-57
2023/07/26 10:28:00;;;;;;;5.40;2.00;;;;;;;27.65;45.46;100368.94;5057108;28;20049;-58
2023/07/26 10:30:27;;;;;;;3.53;1.65;;;;;;;27.65;45.81;100366.22;5070908;28;20496;-58
2023/07/26 10:32:54;;;;;;;3.83;2.17;;;;;;;27.66;45.80;100363.31;5069195;28;20393;-58
2023/07/26 10:35:33;;;;;;;3.97;1.80;;;;;;;27.66;45.80;100363.31;5068038;28;20043;-58
2023/07/26 10:38:03;;;;;;;3.20;1.77;;;;;;;27.67;45.05;100361.41;5054788;28;20055;-58
2023/07/26 10:40:38;;;;;;;3.50;1.75;;;;;;;27.66;44.87;100366.03;5060531;28;20056;-58
2023/07/26 10:43:21;;;;;;;3.20;1.80;;;;;;;27.68;44.73;100360.41;5058971;28;20501;-58
2023/07/26 10:45:54;;;;;;;3.05;1.60;;;;;;;27.69;44.90;100362.91;5068383;28;20392;-58
2023/07/26 10:48:40;;;;;;;;;;;;;;;27.69;44.96;100367.50;5062543;28;20052;-57
2023/07/26 10:51:31;;;;;;;3.58;1.98;;;;;;;27.70;45.01;100370.03;5066943;28;20281;-57
2023/07/26 10:54:00;;;;;;;2.78;1.67;;;;;;;27.71;44.65;100368.13;5054473;28;20044;-57
2023/07/26 10:56:32;;;;;;;4.22;1.67;;;;;;;27.71;44.45;100374.44;5055020;28;20045;-58
2023/07/26 10:59:09;;;;;;;3.40;1.65;;;;;;;27.70;44.26;100380.91;5068309;28;20060;-57
2023/07/26 11:01:44;;;;;;;3.42;2.10;;;;;;;27.69;44.33;100373.78;5055096;28;20056;-56
2023/07/26 11:04:22;;;;;;;3.83;2.08;;;;;;;27.70;43.89;100377.34;5062726;28;20393;-56
2023/07/26 11:06:57;;;;;;;2.80;1.77;;;;;;;27.69;43.63;100376.50;5056212;28;20053;-56
2023/07/26 11:09:33;;;;;;;2.22;1.63;;;;;;;27.72;43.57;100367.13;5068235;28;20045;-56
2023/07/26 11:12:03;;;;;;;3.30;1.67;;;;;;;27.72;43.50;100369.84;5061983;28;20055;-56
2023/07/26 11:14:32;;;;;;;2.40;1.42;;;;;;;27.71;43.61;100370.88;5059650;28;20052;-56
2023/07/26 11:17:13;;;;;;;3.35;1.40;;;;;;;27.72;42.94;100367.13;5071646;28;20392;-56
2023/07/26 11:19:46;;;;;;;3.53;1.58;;;;;;;27.73;41.59;100360.63;5064662;28;20060;-56
2023/07/26 11:22:14;;;;;;;3.63;1.58;;;;;;;27.73;41.10;100355.19;5064589;28;20044;-57
2023/07/26 11:24:41;;;;;;;2.30;1.20;;;;;;;27.74;41.08;100360.47;5060927;28;20421;-56
2023/07/26 11:27:08;;;;;;;3.78;1.63;;;;;;;27.75;41.10;100362.16;5072160;28;20052;-56
2023/07/26 11:29:36;;;;;;;2.35;1.52;;;;;;;27.77;41.22;100359.22;5059888;28;20051;-56
2023/07/26 11:32:04;;;;;;;3.28;1.45;;;;;;;27.75;42.00;100362.16;5058846;28;20398;-57
2023/07/26 11:34:31;;;;;;;2.83;1.80;;;;;;;27.76;42.42;100363.00;5061147;28;20068;-56